sensor_id;sensor_type;location;lat;lon;timestamp;P1;durP1;ratioP1;P2;durP2;ratioP2
31126;SDS011;17775;57.948;12.514;2023-03-23T00:01:04;37.70;;;5.68;;
31126;SDS011;17775;57.948;12.514;2023-03-23T00:03:30;42.60;;;8.23;;
31126;SDS011;17775;57.948;12.514;2023-03-23T00:06:00;31.02;;;5.10;;
31126;SDS011;17775;57.948;12.514;2023-03-23T00:08:27;41.85;;;6.50;;
31126;SDS011;17775;57.948;12.514;2023-03-23T00:10:53;36.33;;;5.40;;
31126;SDS011;17775;57.948;12.514;2023-03-23T00:13:25;28.25;;;4.82;;
31126;SDS011;17775;57.948;12.514;2023-03-23T00:15:50;33.40;;;4.95;;
31126;SDS011;17775;57.948;12.514;2023-03-23T00:18:19;40.92;;;6.47;;
31126;SDS011;17775;57.948;12.514;2023-03-23T00:20:54;28.10;;;5.50;;
31126;SDS011;17775;57.948;12.514;2023-03-23T00:23:20;34.45;;;5.75;;
31126;SDS011;17775;57.948;12.514;2023-03-23T00:25:55;37.38;;;5.50;;
31126;SDS011;17775;57.948;12.514;2023-03-23T00:28:24;35.33;;;5.75;;
31126;SDS011;17775;57.948;12.514;2023-03-23T00:31:04;30.45;;;5.63;;
31126;SDS011;17775;57.948;12.514;2023-03-23T00:33:34;28.23;;;6.38;;
31126;SDS011;17775;57.948;12.514;2023-03-23T00:36:12;35.90;;;5.45;;
31126;SDS011;17775;57.948;12.514;2023-03-23T00:38:38;27.10;;;4.88;;
31126;SDS011;17775;57.948;12.514;2023-03-23T00:41:03;43.80;;;5.85;;
31126;SDS011;17775;57.948;12.514;2023-03-23T00:43:29;37.30;;;4.97;;
31126;SDS011;17775;57.948;12.514;2023-03-23T00:45:55;29.48;;;5.18;;
31126;SDS011;17775;57.948;12.514;2023-03-23T00:50:51;40.22;;;5.10;;
31126;SDS011;17775;57.948;12.514;2023-03-23T00:53:17;34.15;;;4.80;;
31126;SDS011;17775;57.948;12.514;2023-03-23T00:55:43;36.15;;;5.68;;
31126;SDS011;17775;57.948;12.514;2023-03-23T00:58:10;27.88;;;6.50;;
31126;SDS011;17775;57.948;12.514;2023-03-23T01:00:36;33.47;;;4.93;;
31126;SDS011;17775;57.948;12.514;2023-03-23T01:03:02;35.20;;;4.75;;
31126;SDS011;17775;57.948;12.514;2023-03-23T01:05:28;42.95;;;7.63;;
31126;SDS011;17775;57.948;12.514;2023-03-23T01:07:57;30.50;;;5.22;;
31126;SDS011;17775;57.948;12.514;2023-03-23T01:10:22;34.97;;;4.97;;
31126;SDS011;17775;57.948;12.514;2023-03-23T01:12:50;32.33;;;5.78;;
31126;SDS011;17775;57.948;12.514;2023-03-23T01:15:16;40.15;;;6.43;;
31126;SDS011;17775;57.948;12.514;2023-03-23T01:17:42;26.00;;;4.93;;
31126;SDS011;17775;57.948;12.514;2023-03-23T01:20:08;35.53;;;5.60;;
31126;SDS011;17775;57.948;12.514;2023-03-23T01:22:34;27.90;;;4.15;;
31126;SDS011;17775;57.948;12.514;2023-03-23T01:25:00;35.35;;;5.10;;
31126;SDS011;17775;57.948;12.514;2023-03-23T01:27:25;34.45;;;5.88;;
31126;SDS011;17775;57.948;12.514;2023-03-23T01:29:51;37.25;;;5.15;;
31126;SDS011;17775;57.948;12.514;2023-03-23T01:32:16;27.52;;;5.30;;
31126;SDS011;17775;57.948;12.514;2023-03-23T01:34:42;28.95;;;5.45;;
31126;SDS011;17775;57.948;12.514;2023-03-23T01:37:07;38.58;;;4.68;;
31126;SDS011;17775;57.948;12.514;2023-03-23T01:39:33;27.30;;;6.68;;
31126;SDS011;17775;57.948;12.514;2023-03-23T01:41:58;31.48;;;5.53;;
31126;SDS011;17775;57.948;12.514;2023-03-23T01:46:49;34.35;;;4.93;;
31126;SDS011;17775;57.948;12.514;2023-03-23T01:49:19;34.05;;;5.32;;
31126;SDS011;17775;57.948;12.514;2023-03-23T01:51:48;39.53;;;5.22;;
31126;SDS011;17775;57.948;12.514;2023-03-23T01:54:15;25.75;;;5.22;;
31126;SDS011;17775;57.948;12.514;2023-03-23T01:59:11;20.73;;;6.10;;
31126;SDS011;17775;57.948;12.514;2023-03-23T02:01:36;26.55;;;5.10;;
31126;SDS011;17775;57.948;12.514;2023-03-23T02:04:08;28.02;;;5.18;;
31126;SDS011;17775;57.948;12.514;2023-03-23T02:06:33;34.03;;;5.20;;
31126;SDS011;17775;57.948;12.514;2023-03-23T02:09:02;25.67;;;4.75;;
31126;SDS011;17775;57.948;12.514;2023-03-23T02:11:28;27.60;;;5.00;;
31126;SDS011;17775;57.948;12.514;2023-03-23T02:13:54;36.70;;;6.78;;
31126;SDS011;17775;57.948;12.514;2023-03-23T02:16:25;26.27;;;5.20;;
31126;SDS011;17775;57.948;12.514;2023-03-23T02:21:37;28.08;;;4.72;;
31126;SDS011;17775;57.948;12.514;2023-03-23T02:29:18;28.10;;;6.00;;
31126;SDS011;17775;57.948;12.514;2023-03-23T02:34:18;31.08;;;5.88;;
31126;SDS011;17775;57.948;12.514;2023-03-23T02:36:46;30.73;;;5.13;;
31126;SDS011;17775;57.948;12.514;2023-03-23T02:39:13;34.97;;;5.90;;
31126;SDS011;17775;57.948;12.514;2023-03-23T02:41:41;20.65;;;4.93;;
31126;SDS011;17775;57.948;12.514;2023-03-23T02:44:08;31.95;;;6.05;;
31126;SDS011;17775;57.948;12.514;2023-03-23T02:46:34;24.58;;;5.75;;
31126;SDS011;17775;57.948;12.514;2023-03-23T02:49:00;24.05;;;5.40;;
31126;SDS011;17775;57.948;12.514;2023-03-23T02:51:27;20.15;;;6.18;;
31126;SDS011;17775;57.948;12.514;2023-03-23T02:53:53;38.20;;;6.38;;
31126;SDS011;17775;57.948;12.514;2023-03-23T02:56:19;30.23;;;5.22;;
31126;SDS011;17775;57.948;12.514;2023-03-23T02:58:47;30.10;;;5.65;;
31126;SDS011;17775;57.948;12.514;2023-03-23T03:03:40;27.63;;;6.53;;
31126;SDS011;17775;57.948;12.514;2023-03-23T03:06:27;26.73;;;5.45;;
31126;SDS011;17775;57.948;12.514;2023-03-23T03:08:55;25.25;;;4.97;;
31126;SDS011;17775;57.948;12.514;2023-03-23T03:11:23;28.05;;;6.32;;
31126;SDS011;17775;57.948;12.514;2023-03-23T03:13:55;36.08;;;5.85;;
31126;SDS011;17775;57.948;12.514;2023-03-23T03:19:19;20.35;;;4.82;;
31126;SDS011;17775;57.948;12.514;2023-03-23T03:21:46;25.95;;;5.07;;
31126;SDS011;17775;57.948;12.514;2023-03-23T03:24:14;35.67;;;7.82;;
31126;SDS011;17775;57.948;12.514;2023-03-23T03:26:42;25.45;;;5.03;;
31126;SDS011;17775;57.948;12.514;2023-03-23T03:29:10;28.23;;;5.22;;
31126;SDS011;17775;57.948;12.514;2023-03-23T03:31:38;24.25;;;4.57;;
31126;SDS011;17775;57.948;12.514;2023-03-23T03:34:05;22.75;;;4.90;;
31126;SDS011;17775;57.948;12.514;2023-03-23T03:36:32;28.00;;;4.85;;
31126;SDS011;17775;57.948;12.514;2023-03-23T03:39:06;28.65;;;5.50;;
31126;SDS011;17775;57.948;12.514;2023-03-23T03:41:33;27.23;;;6.22;;
31126;SDS011;17775;57.948;12.514;2023-03-23T03:43:58;26.33;;;4.80;;
31126;SDS011;17775;57.948;12.514;2023-03-23T03:46:23;24.20;;;5.13;;
31126;SDS011;17775;57.948;12.514;2023-03-23T03:48:52;32.03;;;4.70;;
31126;SDS011;17775;57.948;12.514;2023-03-23T03:51:17;28.55;;;5.30;;
31126;SDS011;17775;57.948;12.514;2023-03-23T03:53:43;33.38;;;5.15;;
31126;SDS011;17775;57.948;12.514;2023-03-23T03:56:08;25.67;;;5.28;;
31126;SDS011;17775;57.948;12.514;2023-03-23T03:58:33;30.52;;;5.60;;
31126;SDS011;17775;57.948;12.514;2023-03-23T04:01:02;26.52;;;5.22;;
31126;SDS011;17775;57.948;12.514;2023-03-23T04:03:27;18.20;;;4.53;;
31126;SDS011;17775;57.948;12.514;2023-03-23T04:05:56;29.80;;;5.90;;
31126;SDS011;17775;57.948;12.514;2023-03-23T04:08:22;25.42;;;4.93;;
31126;SDS011;17775;57.948;12.514;2023-03-23T04:10:48;24.38;;;5.50;;
31126;SDS011;17775;57.948;12.514;2023-03-23T04:13:13;31.02;;;5.10;;
31126;SDS011;17775;57.948;12.514;2023-03-23T04:15:39;23.88;;;5.30;;
31126;SDS011;17775;57.948;12.514;2023-03-23T04:18:04;26.42;;;6.00;;
31126;SDS011;17775;57.948;12.514;2023-03-23T04:20:30;26.08;;;6.05;;
31126;SDS011;17775;57.948;12.514;2023-03-23T04:22:56;31.42;;;6.85;;
31126;SDS011;17775;57.948;12.514;2023-03-23T04:25:21;23.33;;;5.40;;
31126;SDS011;17775;57.948;12.514;2023-03-23T04:27:47;22.70;;;5.45;;
31126;SDS011;17775;57.948;12.514;2023-03-23T04:30:18;30.52;;;6.10;;
31126;SDS011;17775;57.948;12.514;2023-03-23T04:32:44;23.50;;;5.10;;
31126;SDS011;17775;57.948;12.514;2023-03-23T04:35:10;28.55;;;5.43;;
31126;SDS011;17775;57.948;12.514;2023-03-23T04:37:36;27.70;;;6.07;;
31126;SDS011;17775;57.948;12.514;2023-03-23T04:40:02;21.67;;;5.18;;
31126;SDS011;17775;57.948;12.514;2023-03-23T04:42:32;29.15;;;6.13;;
31126;SDS011;17775;57.948;12.514;2023-03-23T04:44:58;24.80;;;6.20;;
31126;SDS011;17775;57.948;12.514;2023-03-23T04:47:25;26.55;;;5.97;;
31126;SDS011;17775;57.948;12.514;2023-03-23T04:49:57;26.77;;;6.20;;
31126;SDS011;17775;57.948;12.514;2023-03-23T04:52:24;26.23;;;6.65;;
31126;SDS011;17775;57.948;12.514;2023-03-23T04:54:50;33.30;;;7.22;;
31126;SDS011;17775;57.948;12.514;2023-03-23T04:57:15;30.45;;;5.38;;
31126;SDS011;17775;57.948;12.514;2023-03-23T04:59:41;19.40;;;5.43;;
31126;SDS011;17775;57.948;12.514;2023-03-23T05:02:07;22.00;;;4.97;;
31126;SDS011;17775;57.948;12.514;2023-03-23T05:04:32;24.25;;;4.85;;
31126;SDS011;17775;57.948;12.514;2023-03-23T05:06:58;21.63;;;5.90;;
31126;SDS011;17775;57.948;12.514;2023-03-23T05:09:24;21.65;;;5.70;;
31126;SDS011;17775;57.948;12.514;2023-03-23T05:11:49;16.30;;;5.95;;
31126;SDS011;17775;57.948;12.514;2023-03-23T05:14:15;23.48;;;5.10;;
31126;SDS011;17775;57.948;12.514;2023-03-23T05:16:40;23.88;;;6.95;;
31126;SDS011;17775;57.948;12.514;2023-03-23T05:19:05;15.60;;;4.53;;
31126;SDS011;17775;57.948;12.514;2023-03-23T05:21:32;24.45;;;4.97;;
31126;SDS011;17775;57.948;12.514;2023-03-23T05:23:57;17.23;;;5.10;;
31126;SDS011;17775;57.948;12.514;2023-03-23T05:26:28;30.73;;;5.40;;
31126;SDS011;17775;57.948;12.514;2023-03-23T05:28:59;24.02;;;5.45;;
31126;SDS011;17775;57.948;12.514;2023-03-23T05:31:25;21.85;;;6.32;;
31126;SDS011;17775;57.948;12.514;2023-03-23T05:33:50;23.52;;;4.80;;
31126;SDS011;17775;57.948;12.514;2023-03-23T05:36:16;19.80;;;4.55;;
31126;SDS011;17775;57.948;12.514;2023-03-23T05:38:41;16.17;;;4.38;;
31126;SDS011;17775;57.948;12.514;2023-03-23T05:41:14;20.80;;;4.65;;
31126;SDS011;17775;57.948;12.514;2023-03-23T05:43:40;19.70;;;5.55;;
31126;SDS011;17775;57.948;12.514;2023-03-23T05:46:05;17.17;;;5.15;;
31126;SDS011;17775;57.948;12.514;2023-03-23T05:48:32;20.00;;;5.63;;
31126;SDS011;17775;57.948;12.514;2023-03-23T05:50:58;15.35;;;5.65;;
31126;SDS011;17775;57.948;12.514;2023-03-23T05:53:23;18.35;;;6.18;;
31126;SDS011;17775;57.948;12.514;2023-03-23T05:55:49;20.15;;;5.22;;
31126;SDS011;17775;57.948;12.514;2023-03-23T05:58:14;21.60;;;5.00;;
31126;SDS011;17775;57.948;12.514;2023-03-23T06:00:40;23.42;;;6.18;;
31126;SDS011;17775;57.948;12.514;2023-03-23T06:03:05;23.73;;;5.00;;
31126;SDS011;17775;57.948;12.514;2023-03-23T06:05:31;17.40;;;4.63;;
31126;SDS011;17775;57.948;12.514;2023-03-23T06:07:57;20.15;;;5.95;;
31126;SDS011;17775;57.948;12.514;2023-03-23T06:10:25;25.15;;;4.80;;
31126;SDS011;17775;57.948;12.514;2023-03-23T06:12:51;16.50;;;4.75;;
31126;SDS011;17775;57.948;12.514;2023-03-23T06:15:17;15.20;;;4.25;;
31126;SDS011;17775;57.948;12.514;2023-03-23T06:17:43;19.88;;;5.45;;
31126;SDS011;17775;57.948;12.514;2023-03-23T06:20:09;17.42;;;4.78;;
31126;SDS011;17775;57.948;12.514;2023-03-23T06:22:38;14.80;;;5.28;;
31126;SDS011;17775;57.948;12.514;2023-03-23T06:25:08;20.10;;;5.00;;
31126;SDS011;17775;57.948;12.514;2023-03-23T06:27:34;20.30;;;5.78;;
31126;SDS011;17775;57.948;12.514;2023-03-23T06:30:00;18.40;;;5.00;;
31126;SDS011;17775;57.948;12.514;2023-03-23T06:32:27;12.57;;;4.28;;
31126;SDS011;17775;57.948;12.514;2023-03-23T06:34:53;16.55;;;4.40;;
31126;SDS011;17775;57.948;12.514;2023-03-23T06:37:19;17.70;;;4.70;;
31126;SDS011;17775;57.948;12.514;2023-03-23T06:39:45;16.25;;;5.10;;
31126;SDS011;17775;57.948;12.514;2023-03-23T06:42:11;19.40;;;5.50;;
31126;SDS011;17775;57.948;12.514;2023-03-23T06:44:37;19.65;;;4.53;;
31126;SDS011;17775;57.948;12.514;2023-03-23T06:47:02;20.00;;;4.70;;
31126;SDS011;17775;57.948;12.514;2023-03-23T06:49:28;22.25;;;5.13;;
31126;SDS011;17775;57.948;12.514;2023-03-23T06:51:53;13.77;;;4.63;;
31126;SDS011;17775;57.948;12.514;2023-03-23T06:54:21;12.68;;;4.05;;
31126;SDS011;17775;57.948;12.514;2023-03-23T06:56:46;16.15;;;4.30;;
31126;SDS011;17775;57.948;12.514;2023-03-23T06:59:11;11.77;;;4.22;;
31126;SDS011;17775;57.948;12.514;2023-03-23T07:01:37;18.98;;;4.43;;
31126;SDS011;17775;57.948;12.514;2023-03-23T07:04:03;12.23;;;4.35;;
31126;SDS011;17775;57.948;12.514;2023-03-23T07:06:28;21.95;;;4.40;;
31126;SDS011;17775;57.948;12.514;2023-03-23T07:08:54;19.25;;;4.68;;
31126;SDS011;17775;57.948;12.514;2023-03-23T07:11:19;17.42;;;3.85;;
31126;SDS011;17775;57.948;12.514;2023-03-23T07:13:45;10.90;;;4.28;;
31126;SDS011;17775;57.948;12.514;2023-03-23T07:16:11;12.05;;;5.38;;
31126;SDS011;17775;57.948;12.514;2023-03-23T07:18:36;13.43;;;3.85;;
31126;SDS011;17775;57.948;12.514;2023-03-23T07:21:02;19.67;;;5.03;;
31126;SDS011;17775;57.948;12.514;2023-03-23T07:23:28;12.55;;;4.57;;
31126;SDS011;17775;57.948;12.514;2023-03-23T07:25:54;14.55;;;3.92;;
31126;SDS011;17775;57.948;12.514;2023-03-23T07:28:19;18.27;;;6.05;;
31126;SDS011;17775;57.948;12.514;2023-03-23T07:30:45;12.93;;;4.82;;
31126;SDS011;17775;57.948;12.514;2023-03-23T07:33:10;12.02;;;4.30;;
31126;SDS011;17775;57.948;12.514;2023-03-23T07:35:36;15.80;;;4.47;;
31126;SDS011;17775;57.948;12.514;2023-03-23T07:38:04;21.60;;;5.35;;
31126;SDS011;17775;57.948;12.514;2023-03-23T07:40:29;11.55;;;5.30;;
31126;SDS011;17775;57.948;12.514;2023-03-23T07:42:58;15.43;;;4.65;;
31126;SDS011;17775;57.948;12.514;2023-03-23T07:45:27;12.73;;;4.10;;
31126;SDS011;17775;57.948;12.514;2023-03-23T07:47:53;15.05;;;4.85;;
31126;SDS011;17775;57.948;12.514;2023-03-23T07:50:18;11.60;;;4.13;;
31126;SDS011;17775;57.948;12.514;2023-03-23T07:52:47;13.85;;;4.25;;
31126;SDS011;17775;57.948;12.514;2023-03-23T07:55:12;16.25;;;6.20;;
31126;SDS011;17775;57.948;12.514;2023-03-23T07:57:46;15.32;;;5.78;;
31126;SDS011;17775;57.948;12.514;2023-03-23T08:00:12;14.07;;;4.57;;
31126;SDS011;17775;57.948;12.514;2023-03-23T08:02:41;18.50;;;4.78;;
31126;SDS011;17775;57.948;12.514;2023-03-23T08:05:07;12.82;;;4.47;;
31126;SDS011;17775;57.948;12.514;2023-03-23T08:07:33;19.17;;;4.88;;
31126;SDS011;17775;57.948;12.514;2023-03-23T08:09:59;13.07;;;5.13;;
31126;SDS011;17775;57.948;12.514;2023-03-23T08:12:24;13.35;;;5.10;;
31126;SDS011;17775;57.948;12.514;2023-03-23T08:14:50;21.48;;;5.68;;
31126;SDS011;17775;57.948;12.514;2023-03-23T08:17:16;11.15;;;4.63;;
31126;SDS011;17775;57.948;12.514;2023-03-23T08:19:41;12.70;;;4.93;;
31126;SDS011;17775;57.948;12.514;2023-03-23T08:22:08;20.25;;;5.15;;
31126;SDS011;17775;57.948;12.514;2023-03-23T08:24:33;17.40;;;4.57;;
31126;SDS011;17775;57.948;12.514;2023-03-23T08:27:01;15.27;;;4.55;;
31126;SDS011;17775;57.948;12.514;2023-03-23T08:29:26;15.23;;;4.30;;
31126;SDS011;17775;57.948;12.514;2023-03-23T08:31:52;11.93;;;4.28;;
31126;SDS011;17775;57.948;12.514;2023-03-23T08:34:18;15.98;;;3.95;;
31126;SDS011;17775;57.948;12.514;2023-03-23T08:36:44;13.00;;;5.28;;
31126;SDS011;17775;57.948;12.514;2023-03-23T08:39:11;12.88;;;4.13;;
31126;SDS011;17775;57.948;12.514;2023-03-23T08:41:37;14.52;;;5.45;;
31126;SDS011;17775;57.948;12.514;2023-03-23T08:44:02;20.55;;;5.35;;
31126;SDS011;17775;57.948;12.514;2023-03-23T08:46:28;17.90;;;5.20;;
31126;SDS011;17775;57.948;12.514;2023-03-23T08:48:53;13.20;;;5.38;;
31126;SDS011;17775;57.948;12.514;2023-03-23T08:51:19;17.88;;;5.47;;
31126;SDS011;17775;57.948;12.514;2023-03-23T08:53:44;16.90;;;5.00;;
31126;SDS011;17775;57.948;12.514;2023-03-23T08:56:10;15.80;;;4.97;;
31126;SDS011;17775;57.948;12.514;2023-03-23T08:58:37;13.70;;;4.60;;
31126;SDS011;17775;57.948;12.514;2023-03-23T09:01:03;10.07;;;4.90;;
31126;SDS011;17775;57.948;12.514;2023-03-23T09:03:31;13.15;;;3.90;;
31126;SDS011;17775;57.948;12.514;2023-03-23T09:06:00;12.90;;;5.07;;
31126;SDS011;17775;57.948;12.514;2023-03-23T09:08:29;12.32;;;4.15;;
31126;SDS011;17775;57.948;12.514;2023-03-23T09:11:02;12.38;;;5.05;;
31126;SDS011;17775;57.948;12.514;2023-03-23T09:13:28;12.90;;;4.53;;
31126;SDS011;17775;57.948;12.514;2023-03-23T09:15:53;8.10;;;3.78;;
31126;SDS011;17775;57.948;12.514;2023-03-23T09:18:19;11.65;;;4.28;;
31126;SDS011;17775;57.948;12.514;2023-03-23T09:20:44;8.93;;;4.03;;
31126;SDS011;17775;57.948;12.514;2023-03-23T09:23:09;12.10;;;3.67;;
31126;SDS011;17775;57.948;12.514;2023-03-23T09:25:37;10.00;;;3.97;;
31126;SDS011;17775;57.948;12.514;2023-03-23T09:28:02;14.57;;;5.28;;
31126;SDS011;17775;57.948;12.514;2023-03-23T09:30:29;8.20;;;3.80;;
31126;SDS011;17775;57.948;12.514;2023-03-23T09:32:55;8.82;;;3.78;;
31126;SDS011;17775;57.948;12.514;2023-03-23T09:35:21;11.27;;;3.97;;
31126;SDS011;17775;57.948;12.514;2023-03-23T09:37:48;9.90;;;3.40;;
31126;SDS011;17775;57.948;12.514;2023-03-23T09:40:17;7.97;;;3.20;;
31126;SDS011;17775;57.948;12.514;2023-03-23T09:45:25;11.25;;;4.10;;
31126;SDS011;17775;57.948;12.514;2023-03-23T09:50:23;9.27;;;4.03;;
31126;SDS011;17775;57.948;12.514;2023-03-23T09:52:56;8.53;;;4.07;;
31126;SDS011;17775;57.948;12.514;2023-03-23T09:55:22;10.30;;;3.92;;
31126;SDS011;17775;57.948;12.514;2023-03-23T10:03:02;9.60;;;4.38;;
31126;SDS011;17775;57.948;12.514;2023-03-23T10:07:56;11.15;;;4.32;;
31126;SDS011;17775;57.948;12.514;2023-03-23T10:10:29;13.57;;;5.22;;
31126;SDS011;17775;57.948;12.514;2023-03-23T10:12:59;12.48;;;5.10;;
31126;SDS011;17775;57.948;12.514;2023-03-23T10:17:54;13.50;;;4.90;;
31126;SDS011;17775;57.948;12.514;2023-03-23T10:20:32;11.95;;;4.53;;
31126;SDS011;17775;57.948;12.514;2023-03-23T10:23:02;12.18;;;4.60;;
31126;SDS011;17775;57.948;12.514;2023-03-23T10:25:31;8.93;;;4.60;;
31126;SDS011;17775;57.948;12.514;2023-03-23T10:28:08;13.48;;;5.35;;
31126;SDS011;17775;57.948;12.514;2023-03-23T10:30:46;11.98;;;5.20;;
31126;SDS011;17775;57.948;12.514;2023-03-23T10:33:24;13.43;;;5.57;;
31126;SDS011;17775;57.948;12.514;2023-03-23T10:35:53;11.82;;;5.97;;
31126;SDS011;17775;57.948;12.514;2023-03-23T10:38:23;14.30;;;5.60;;
31126;SDS011;17775;57.948;12.514;2023-03-23T10:40:54;11.27;;;5.40;;
31126;SDS011;17775;57.948;12.514;2023-03-23T10:43:20;18.38;;;6.35;;
31126;SDS011;17775;57.948;12.514;2023-03-23T10:45:53;12.93;;;6.40;;
31126;SDS011;17775;57.948;12.514;2023-03-23T10:48:26;11.20;;;5.38;;
31126;SDS011;17775;57.948;12.514;2023-03-23T10:50:54;14.13;;;5.20;;
31126;SDS011;17775;57.948;12.514;2023-03-23T10:53:21;11.32;;;4.35;;
31126;SDS011;17775;57.948;12.514;2023-03-23T10:55:48;10.60;;;4.40;;
31126;SDS011;17775;57.948;12.514;2023-03-23T10:58:27;8.32;;;4.10;;
31126;SDS011;17775;57.948;12.514;2023-03-23T11:00:57;10.38;;;3.78;;
31126;SDS011;17775;57.948;12.514;2023-03-23T11:03:25;9.25;;;5.15;;
31126;SDS011;17775;57.948;12.514;2023-03-23T11:08:20;9.05;;;4.43;;
31126;SDS011;17775;57.948;12.514;2023-03-23T11:10:53;10.95;;;4.60;;
31126;SDS011;17775;57.948;12.514;2023-03-23T11:13:20;9.05;;;4.75;;
31126;SDS011;17775;57.948;12.514;2023-03-23T11:15:46;11.40;;;4.93;;
31126;SDS011;17775;57.948;12.514;2023-03-23T11:18:13;16.55;;;4.72;;
31126;SDS011;17775;57.948;12.514;2023-03-23T11:20:43;15.77;;;5.57;;
31126;SDS011;17775;57.948;12.514;2023-03-23T11:23:18;15.43;;;5.38;;
31126;SDS011;17775;57.948;12.514;2023-03-23T11:28:20;11.60;;;4.60;;
31126;SDS011;17775;57.948;12.514;2023-03-23T11:30:46;13.50;;;5.22;;
31126;SDS011;17775;57.948;12.514;2023-03-23T11:33:11;18.30;;;5.18;;
31126;SDS011;17775;57.948;12.514;2023-03-23T11:35:42;12.60;;;4.53;;
31126;SDS011;17775;57.948;12.514;2023-03-23T11:38:11;12.45;;;4.20;;
31126;SDS011;17775;57.948;12.514;2023-03-23T11:40:47;8.90;;;3.58;;
31126;SDS011;17775;57.948;12.514;2023-03-23T11:43:13;8.13;;;3.95;;
31126;SDS011;17775;57.948;12.514;2023-03-23T11:45:40;10.07;;;3.20;;
31126;SDS011;17775;57.948;12.514;2023-03-23T11:48:26;8.50;;;3.75;;
31126;SDS011;17775;57.948;12.514;2023-03-23T11:58:33;8.75;;;3.15;;
31126;SDS011;17775;57.948;12.514;2023-03-23T12:03:35;6.88;;;3.22;;
31126;SDS011;17775;57.948;12.514;2023-03-23T12:06:06;9.02;;;3.10;;
31126;SDS011;17775;57.948;12.514;2023-03-23T12:28:56;5.60;;;2.00;;
31126;SDS011;17775;57.948;12.514;2023-03-23T12:31:33;6.45;;;2.38;;
31126;SDS011;17775;57.948;12.514;2023-03-23T12:44:13;7.18;;;1.90;;
31126;SDS011;17775;57.948;12.514;2023-03-23T12:51:55;14.00;;;2.58;;
31126;SDS011;17775;57.948;12.514;2023-03-23T12:56:56;2.97;;;1.20;;
31126;SDS011;17775;57.948;12.514;2023-03-23T13:02:44;6.63;;;1.48;;
31126;SDS011;17775;57.948;12.514;2023-03-23T13:07:39;4.43;;;1.23;;
31126;SDS011;17775;57.948;12.514;2023-03-23T13:13:11;7.20;;;1.40;;
31126;SDS011;17775;57.948;12.514;2023-03-23T13:16:27;3.78;;;1.38;;
31126;SDS011;17775;57.948;12.514;2023-03-23T13:25:54;1.95;;;0.85;;
31126;SDS011;17775;57.948;12.514;2023-03-23T13:28:25;6.43;;;1.70;;
31126;SDS011;17775;57.948;12.514;2023-03-23T13:31:03;3.15;;;1.23;;
31126;SDS011;17775;57.948;12.514;2023-03-23T13:33:30;2.50;;;1.00;;
31126;SDS011;17775;57.948;12.514;2023-03-23T13:35:56;5.97;;;1.60;;
31126;SDS011;17775;57.948;12.514;2023-03-23T13:38:26;8.43;;;1.73;;
31126;SDS011;17775;57.948;12.514;2023-03-23T13:40:52;3.53;;;1.00;;
31126;SDS011;17775;57.948;12.514;2023-03-23T13:43:29;3.08;;;0.98;;
31126;SDS011;17775;57.948;12.514;2023-03-23T13:45:54;0.93;;;0.63;;
31126;SDS011;17775;57.948;12.514;2023-03-23T13:48:22;3.33;;;0.88;;
31126;SDS011;17775;57.948;12.514;2023-03-23T13:53:14;2.25;;;0.80;;
31126;SDS011;17775;57.948;12.514;2023-03-23T13:55:41;4.90;;;0.80;;
31126;SDS011;17775;57.948;12.514;2023-03-23T14:03:01;1.88;;;0.70;;
31126;SDS011;17775;57.948;12.514;2023-03-23T14:07:57;3.10;;;0.85;;
31126;SDS011;17775;57.948;12.514;2023-03-23T14:10:25;2.63;;;0.77;;
31126;SDS011;17775;57.948;12.514;2023-03-23T14:12:56;2.15;;;0.77;;
31126;SDS011;17775;57.948;12.514;2023-03-23T14:15:27;5.22;;;1.00;;
31126;SDS011;17775;57.948;12.514;2023-03-23T14:17:53;3.70;;;0.93;;
31126;SDS011;17775;57.948;12.514;2023-03-23T14:20:31;2.42;;;1.15;;
31126;SDS011;17775;57.948;12.514;2023-03-23T14:22:58;3.35;;;0.90;;
31126;SDS011;17775;57.948;12.514;2023-03-23T14:25:26;2.92;;;1.17;;
31126;SDS011;17775;57.948;12.514;2023-03-23T14:27:52;7.22;;;1.80;;
31126;SDS011;17775;57.948;12.514;2023-03-23T14:30:20;9.88;;;1.80;;
31126;SDS011;17775;57.948;12.514;2023-03-23T14:32:46;6.20;;;1.85;;
31126;SDS011;17775;57.948;12.514;2023-03-23T14:37:44;12.73;;;2.38;;
31126;SDS011;17775;57.948;12.514;2023-03-23T14:40:13;10.23;;;2.15;;
31126;SDS011;17775;57.948;12.514;2023-03-23T14:42:40;13.05;;;2.20;;
31126;SDS011;17775;57.948;12.514;2023-03-23T14:45:06;13.18;;;2.50;;
31126;SDS011;17775;57.948;12.514;2023-03-23T14:47:35;14.38;;;2.70;;
31126;SDS011;17775;57.948;12.514;2023-03-23T14:50:04;14.82;;;2.65;;
31126;SDS011;17775;57.948;12.514;2023-03-23T14:52:35;17.80;;;2.70;;
31126;SDS011;17775;57.948;12.514;2023-03-23T14:55:10;19.63;;;3.10;;
31126;SDS011;17775;57.948;12.514;2023-03-23T14:57:36;20.40;;;3.08;;
31126;SDS011;17775;57.948;12.514;2023-03-23T15:00:05;14.70;;;2.97;;
31126;SDS011;17775;57.948;12.514;2023-03-23T15:02:33;18.25;;;3.40;;
31126;SDS011;17775;57.948;12.514;2023-03-23T15:05:01;13.25;;;2.25;;
31126;SDS011;17775;57.948;12.514;2023-03-23T15:07:29;19.90;;;3.22;;
31126;SDS011;17775;57.948;12.514;2023-03-23T15:09:56;18.60;;;3.45;;
31126;SDS011;17775;57.948;12.514;2023-03-23T15:12:22;23.80;;;3.97;;
31126;SDS011;17775;57.948;12.514;2023-03-23T15:14:50;28.90;;;3.22;;
31126;SDS011;17775;57.948;12.514;2023-03-23T15:17:20;20.13;;;2.67;;
31126;SDS011;17775;57.948;12.514;2023-03-23T15:19:46;17.33;;;3.17;;
31126;SDS011;17775;57.948;12.514;2023-03-23T15:22:28;13.05;;;3.47;;
31126;SDS011;17775;57.948;12.514;2023-03-23T15:25:09;20.13;;;3.25;;
31126;SDS011;17775;57.948;12.514;2023-03-23T15:27:40;26.27;;;3.35;;
31126;SDS011;17775;57.948;12.514;2023-03-23T15:30:13;27.00;;;4.05;;
31126;SDS011;17775;57.948;12.514;2023-03-23T15:32:39;12.23;;;2.75;;
31126;SDS011;17775;57.948;12.514;2023-03-23T15:35:13;17.23;;;3.28;;
31126;SDS011;17775;57.948;12.514;2023-03-23T15:37:42;14.02;;;3.08;;
31126;SDS011;17775;57.948;12.514;2023-03-23T15:40:24;17.17;;;2.88;;
31126;SDS011;17775;57.948;12.514;2023-03-23T15:42:49;21.35;;;2.97;;
31126;SDS011;17775;57.948;12.514;2023-03-23T15:45:24;21.48;;;3.38;;
31126;SDS011;17775;57.948;12.514;2023-03-23T15:47:49;25.70;;;3.47;;
31126;SDS011;17775;57.948;12.514;2023-03-23T15:50:20;16.65;;;4.63;;
31126;SDS011;17775;57.948;12.514;2023-03-23T15:52:56;18.77;;;2.50;;
31126;SDS011;17775;57.948;12.514;2023-03-23T15:55:26;25.27;;;2.85;;
31126;SDS011;17775;57.948;12.514;2023-03-23T15:57:52;24.30;;;3.85;;
31126;SDS011;17775;57.948;12.514;2023-03-23T16:00:20;18.70;;;2.58;;
31126;SDS011;17775;57.948;12.514;2023-03-23T16:02:47;13.60;;;2.83;;
31126;SDS011;17775;57.948;12.514;2023-03-23T16:05:15;21.10;;;3.53;;
31126;SDS011;17775;57.948;12.514;2023-03-23T16:07:41;14.68;;;2.53;;
31126;SDS011;17775;57.948;12.514;2023-03-23T16:10:14;27.30;;;3.30;;
31126;SDS011;17775;57.948;12.514;2023-03-23T16:12:40;17.95;;;2.80;;
31126;SDS011;17775;57.948;12.514;2023-03-23T16:15:07;25.77;;;4.45;;
31126;SDS011;17775;57.948;12.514;2023-03-23T16:17:34;30.85;;;5.75;;
31126;SDS011;17775;57.948;12.514;2023-03-23T16:20:01;20.83;;;2.50;;
31126;SDS011;17775;57.948;12.514;2023-03-23T16:22:29;24.73;;;4.35;;
31126;SDS011;17775;57.948;12.514;2023-03-23T16:24:55;27.83;;;2.95;;
31126;SDS011;17775;57.948;12.514;2023-03-23T16:27:22;27.23;;;4.20;;